Time;durP1;ratioP1;P1;durP2;ratioP2;P2;SDS_P1;SDS_P2;PMS_P1;PMS_P2;Temp;Humidity;BMP_temperature;BMP_pressure;BME280_temperature;BME280_humidity;BME280_pressure;Samples;Min_cycle;Max_cycle;Signal;HPM_P1;HPM_P2
2023/04/04 00:01:35;;;;;;;3.90;2.38;;;2.20;99.90;;;;;;5069956;28;20094;-85
2023/04/04 00:04:00;;;;;;;5.15;2.30;;;2.20;99.90;;;;;;5070162;28;20050;-85
2023/04/04 00:06:26;;;;;;;3.88;2.33;;;2.20;99.90;;;;;;5064591;28;20079;-85
2023/04/04 00:08:52;;;;;;;3.72;2.50;;;2.20;99.90;;;;;;5070993;28;20111;-85
2023/04/04 00:11:18;;;;;;;4.07;2.83;;;2.20;99.90;;;;;;5053338;28;20140;-86
2023/04/04 00:13:44;;;;;;;4.35;2.97;;;2.10;99.90;;;;;;5062464;28;20095;-86
2023/04/04 00:16:10;;;;;;;3.10;2.40;;;2.10;99.90;;;;;;5050067;28;20056;-86
2023/04/04 00:18:36;;;;;;;5.10;2.95;;;2.20;99.90;;;;;;5064218;28;20504;-86
2023/04/04 00:21:01;;;;;;;4.55;2.53;;;2.60;99.90;;;;;;5033981;28;20122;-86
2023/04/04 00:23:27;;;;;;;4.55;2.60;;;3.10;99.90;;;;;;5050031;28;20056;-86
2023/04/04 00:25:52;;;;;;;4.10;2.45;;;2.60;99.90;;;;;;5063933;28;20055;-85
2023/04/04 00:28:19;;;;;;;3.35;2.50;;;2.20;99.90;;;;;;5059277;28;20491;-84
2023/04/04 00:30:45;;;;;;;6.65;2.47;;;2.00;99.90;;;;;;5070417;28;20029;-85
2023/04/04 00:33:11;;;;;;;4.72;2.90;;;1.90;99.90;;;;;;5067278;28;20049;-85
2023/04/04 00:35:37;;;;;;;5.50;2.65;;;1.90;99.90;;;;;;5066708;28;20036;-85
2023/04/04 00:38:02;;;;;;;5.15;2.80;;;1.90;99.90;;;;;;5063710;28;20081;-85
2023/04/04 00:40:28;;;;;;;3.85;2.60;;;2.10;99.90;;;;;;5070954;28;20044;-85
2023/04/04 00:42:54;;;;;;;3.33;2.50;;;2.20;99.90;;;;;;5070833;28;20120;-85
2023/04/04 00:45:20;;;;;;;4.80;3.08;;;2.10;99.90;;;;;;5062082;28;20124;-84
2023/04/04 00:47:46;;;;;;;5.20;3.08;;;1.70;99.90;;;;;;5043705;28;20111;-85
2023/04/04 00:50:12;;;;;;;5.18;3.17;;;2.00;99.90;;;;;;5063232;28;20048;-85
2023/04/04 00:52:37;;;;;;;5.25;2.92;;;1.70;99.90;;;;;;5049635;28;20033;-85
2023/04/04 00:55:04;;;;;;;4.85;2.90;;;2.10;99.90;;;;;;5052636;28;20037;-85
2023/04/04 00:57:31;;;;;;;4.43;3.13;;;1.70;99.90;;;;;;5063189;28;20080;-85
2023/04/04 00:59:57;;;;;;;7.13;3.10;;;2.30;99.90;;;;;;5073113;28;20040;-85
2023/04/04 01:02:24;;;;;;;5.43;2.92;;;1.80;99.90;;;;;;5063651;28;20487;-84
2023/04/04 01:04:50;;;;;;;5.55;2.97;;;1.60;99.90;;;;;;5054404;28;20374;-85
2023/04/04 01:07:17;;;;;;;7.22;3.30;;;1.60;99.90;;;;;;5067990;28;20047;-85
2023/04/04 01:09:43;;;;;;;5.78;3.10;;;1.70;99.90;;;;;;5068671;28;20150;-84
2023/04/04 01:12:09;;;;;;;4.80;2.97;;;1.60;99.90;;;;;;5069625;28;20112;-85
2023/04/04 01:14:34;;;;;;;4.20;2.78;;;1.60;99.90;;;;;;5074026;28;20039;-85
2023/04/04 01:17:02;;;;;;;5.90;3.30;;;1.50;99.90;;;;;;5070334;28;20162;-85
2023/04/04 01:19:36;;;;;;;7.68;3.30;;;1.50;99.90;;;;;;5063649;28;20052;-85
2023/04/04 01:22:04;;;;;;;5.97;3.28;;;2.10;99.90;;;;;;5070333;28;20036;-85
2023/04/04 01:24:32;;;;;;;4.70;2.70;;;1.50;99.90;;;;;;5072703;28;20055;-85
2023/04/04 01:26:59;;;;;;;6.45;3.10;;;2.00;99.90;;;;;;5068069;28;20049;-85
2023/04/04 01:29:26;;;;;;;6.88;3.60;;;1.50;99.90;;;;;;5071693;28;20527;-85
2023/04/04 01:32:02;;;;;;;6.93;3.78;;;1.50;99.90;;;;;;5053911;28;20397;-85
2023/04/04 01:34:55;;;;;;;7.15;3.47;;;1.60;99.90;;;;;;5052433;28;20063;-85
2023/04/04 01:37:32;;;;;;;5.18;3.35;;;1.40;99.90;;;;;;5061762;28;20120;-85
2023/04/04 01:40:20;;;;;;;4.82;3.35;;;1.80;99.90;;;;;;5053596;28;20059;-85
2023/04/04 01:42:47;;;;;;;7.95;3.63;;;1.40;99.90;;;;;;5035835;28;20048;-85
2023/04/04 01:45:13;;;;;;;7.43;3.30;;;1.40;99.90;;;;;;5067021;28;20040;-85
2023/04/04 01:47:40;;;;;;;5.78;3.65;;;1.30;99.90;;;;;;5073120;28;20120;-84
2023/04/04 01:50:10;;;;;;;6.78;3.50;;;1.30;99.90;;;;;;5069419;28;20880;-84
2023/04/04 01:52:36;;;;;;;5.75;3.50;;;1.30;99.90;;;;;;5073295;28;20064;-84
2023/04/04 01:55:03;;;;;;;5.60;3.38;;;1.30;99.90;;;;;;5069205;28;20037;-84
2023/04/04 01:57:29;;;;;;;5.43;3.45;;;1.20;99.90;;;;;;5073115;28;20427;-84
2023/04/04 01:59:55;;;;;;;7.25;3.25;;;1.20;99.90;;;;;;5072216;28;20395;-83
2023/04/04 02:02:21;;;;;;;7.03;3.50;;;2.00;99.90;;;;;;5052189;28;20045;-83
2023/04/04 02:04:47;;;;;;;6.43;3.13;;;1.20;99.90;;;;;;5060776;28;20039;-83
2023/04/04 02:07:13;;;;;;;7.35;3.85;;;1.20;99.90;;;;;;5068513;28;20052;-84
2023/04/04 02:09:39;;;;;;;7.25;3.40;;;1.50;99.90;;;;;;5056256;28;20451;-84
2023/04/04 02:12:05;;;;;;;6.57;3.28;;;1.10;99.90;;;;;;5065073;28;20124;-84
2023/04/04 02:14:31;;;;;;;4.80;3.13;;;1.10;99.90;;;;;;5064145;28;20474;-84
2023/04/04 02:16:56;;;;;;;6.80;3.58;;;1.10;99.90;;;;;;5071342;28;20105;-83
2023/04/04 02:19:23;;;;;;;6.28;3.50;;;1.10;99.90;;;;;;5057943;28;20113;-84
2023/04/04 02:21:49;;;;;;;5.30;3.40;;;1.00;99.90;;;;;;5063670;28;20044;-83
2023/04/04 02:24:14;;;;;;;6.20;3.30;;;1.50;99.90;;;;;;5062905;28;20082;-84
2023/04/04 02:26:40;;;;;;;5.93;3.08;;;1.00;99.90;;;;;;5060554;28;20064;-84
2023/04/04 02:29:06;;;;;;;6.68;3.40;;;1.00;99.90;;;;;;5051892;28;20057;-84
2023/04/04 02:31:32;;;;;;;6.30;3.35;;;0.90;99.90;;;;;;5051364;28;20167;-84
2023/04/04 02:33:57;;;;;;;7.00;3.30;;;1.70;99.90;;;;;;5055052;28;20036;-83
2023/04/04 02:36:23;;;;;;;4.78;3.33;;;0.90;99.90;;;;;;5071980;28;20113;-83
2023/04/04 02:38:48;;;;;;;5.05;3.30;;;0.90;99.90;;;;;;5062982;28;20459;-83
2023/04/04 02:41:14;;;;;;;6.63;3.30;;;0.90;99.90;;;;;;5051303;28;20063;-83
2023/04/04 02:43:39;;;;;;;6.97;3.25;;;0.90;99.90;;;;;;5053035;28;20029;-83
2023/04/04 02:46:05;;;;;;;5.70;3.38;;;0.90;99.90;;;;;;5068148;28;20139;-83
2023/04/04 02:48:31;;;;;;;6.40;3.28;;;0.90;99.90;;;;;;5051029;28;20045;-83
2023/04/04 02:50:56;;;;;;;5.13;3.40;;;0.90;99.90;;;;;;5051038;28;20044;-83
2023/04/04 02:53:22;;;;;;;6.85;3.60;;;1.10;99.90;;;;;;5063054;28;20488;-83
2023/04/04 02:55:47;;;;;;;5.43;3.60;;;0.80;99.90;;;;;;5062608;28;20051;-83
2023/04/04 02:58:13;;;;;;;7.07;3.37;;;0.80;99.90;;;;;;5066312;28;20041;-83
2023/04/04 03:00:38;;;;;;;6.23;3.43;;;0.80;99.90;;;;;;5070595;28;20474;-83
2023/04/04 03:03:04;;;;;;;4.77;3.17;;;0.80;99.90;;;;;;5072152;28;20094;-83
2023/04/04 03:05:30;;;;;;;6.37;3.30;;;0.70;99.90;;;;;;5063815;28;20115;-83
2023/04/04 03:07:57;;;;;;;6.97;3.23;;;0.70;99.90;;;;;;5066631;28;20159;-83
2023/04/04 03:10:23;;;;;;;4.47;2.97;;;0.70;99.90;;;;;;5068248;28;20075;-83
2023/04/04 03:12:49;;;;;;;5.20;3.37;;;0.70;99.90;;;;;;5070599;28;20044;-83
2023/04/04 03:15:15;;;;;;;5.47;3.40;;;1.40;99.90;;;;;;5068474;28;20075;-83
2023/04/04 03:17:41;;;;;;;5.23;3.63;;;0.70;99.90;;;;;;5063603;28;20125;-83
2023/04/04 03:20:07;;;;;;;7.10;3.53;;;0.60;99.90;;;;;;5070474;28;20045;-83
2023/04/04 03:22:33;;;;;;;5.63;3.60;;;0.60;99.90;;;;;;5071763;28;20686;-83
2023/04/04 03:24:58;;;;;;;6.60;3.47;;;0.60;99.90;;;;;;5060002;28;20111;-83
2023/04/04 03:27:24;;;;;;;5.73;3.70;;;0.90;99.90;;;;;;5064202;28;20044;-83
2023/04/04 03:29:50;;;;;;;5.77;3.37;;;0.60;99.90;;;;;;5070352;28;20051;-83
2023/04/04 03:32:17;;;;;;;5.20;3.40;;;0.90;99.90;;;;;;5070582;28;20045;-83
2023/04/04 03:34:43;;;;;;;7.60;4.03;;;0.50;99.90;;;;;;5067330;28;20412;-83
2023/04/04 03:37:09;;;;;;;6.00;4.03;;;0.70;99.90;;;;;;5064695;28;20048;-84
2023/04/04 03:39:34;;;;;;;6.50;3.97;;;0.40;99.90;;;;;;5050508;28;20060;-84
2023/04/04 03:42:00;;;;;;;7.50;4.23;;;1.00;99.90;;;;;;5050306;28;20059;-84
2023/04/04 03:44:25;;;;;;;6.67;3.87;;;1.00;99.90;;;;;;5051817;28;20041;-84
2023/04/04 03:46:51;;;;;;;8.60;4.23;;;0.40;99.90;;;;;;5052988;28;20037;-84
2023/04/04 03:49:17;;;;;;;7.23;3.60;;;0.40;99.90;;;;;;5071592;28;20494;-84
2023/04/04 03:51:42;;;;;;;8.40;4.07;;;-0.40;99.90;;;;;;5063946;28;20041;-83
2023/04/04 03:54:08;;;;;;;6.33;3.97;;;0.60;99.90;;;;;;5057985;28;20079;-84
2023/04/04 03:56:33;;;;;;;7.57;3.97;;;0.80;99.90;;;;;;5067504;28;20048;-83
2023/04/04 03:58:59;;;;;;;5.50;3.50;;;0.30;99.90;;;;;;5070219;28;20040;-83
2023/04/04 04:01:25;;;;;;;7.30;3.60;;;0.90;99.90;;;;;;5062344;28;20041;-84
2023/04/04 04:03:50;;;;;;;6.07;4.27;;;0.20;99.90;;;;;;5055771;28;20040;-83
2023/04/04 04:06:16;;;;;;;4.90;3.60;;;0.70;99.90;;;;;;5071062;28;20116;-83
2023/04/04 04:08:41;;;;;;;5.40;3.53;;;0.20;99.90;;;;;;5058604;28;20189;-83
2023/04/04 04:11:07;;;;;;;6.00;3.90;;;0.20;99.90;;;;;;5066774;28;20296;-83
2023/04/04 04:13:37;;;;;;;8.23;3.70;;;0.80;99.90;;;;;;5065375;28;20039;-83
2023/04/04 04:16:03;;;;;;;5.87;3.37;;;0.10;99.90;;;;;;5067041;28;20134;-84
2023/04/04 04:18:29;;;;;;;7.60;4.10;;;0.10;99.90;;;;;;5070604;28;20040;-83
2023/04/04 04:20:58;;;;;;;6.43;4.13;;;0.10;99.90;;;;;;5055531;28;20047;-83
2023/04/04 04:23:24;;;;;;;5.70;3.57;;;0.10;99.90;;;;;;5051112;28;20492;-83
2023/04/04 04:25:50;;;;;;;6.47;3.77;;;0.10;99.90;;;;;;5054101;28;20060;-83
2023/04/04 04:28:16;;;;;;;6.93;4.03;;;0.70;99.90;;;;;;5071648;28;20040;-83
2023/04/04 04:30:43;;;;;;;6.27;3.87;;;0.00;99.90;;;;;;5073967;28;20036;-83
2023/04/04 04:33:08;;;;;;;7.83;3.37;;;0.00;99.90;;;;;;5060388;28;20127;-83
2023/04/04 04:35:38;;;;;;;5.67;3.70;;;0.00;99.90;;;;;;5053548;28;20128;-83
2023/04/04 04:38:05;;;;;;;6.97;3.67;;;-0.10;99.90;;;;;;5069159;28;20048;-83
2023/04/04 04:40:31;;;;;;;5.47;3.40;;;0.30;99.90;;;;;;5073007;28;20056;-83
2023/04/04 04:42:59;;;;;;;8.20;3.67;;;-0.30;99.90;;;;;;5069288;28;20040;-83
2023/04/04 04:45:25;;;;;;;8.00;4.00;;;-0.30;99.90;;;;;;5055973;28;20455;-83
2023/04/04 04:47:51;;;;;;;5.90;4.27;;;-0.30;99.90;;;;;;5066505;28;20033;-83
2023/04/04 04:50:16;;;;;;;5.97;3.60;;;-0.30;99.90;;;;;;5073935;28;20566;-83
2023/04/04 04:52:43;;;;;;;7.33;3.67;;;-0.30;99.90;;;;;;5062880;28;20170;-83
2023/04/04 04:55:10;;;;;;;6.93;3.90;;;-0.10;99.90;;;;;;5056209;28;20420;-83
2023/04/04 04:57:36;;;;;;;7.90;4.37;;;0.30;99.90;;;;;;5074526;28;20055;-83
2023/04/04 05:00:03;;;;;;;7.43;4.77;;;0.40;99.90;;;;;;5057849;28;20103;-83
2023/04/04 05:02:29;;;;;;;7.80;4.20;;;-0.30;99.90;;;;;;5056320;28;20132;-83
2023/04/04 05:04:55;;;;;;;5.80;3.63;;;0.50;99.90;;;;;;5056880;28;20035;-83
2023/04/04 05:07:23;;;;;;;5.57;3.67;;;-0.30;99.90;;;;;;5065089;28;20076;-84
2023/04/04 05:09:50;;;;;;;8.77;3.90;;;-0.20;99.90;;;;;;5056903;28;20063;-84
2023/04/04 05:12:16;;;;;;;6.67;4.20;;;-0.30;99.90;;;;;;5072801;28;20064;-84
2023/04/04 05:14:42;;;;;;;7.83;4.40;;;-0.30;99.90;;;;;;5056047;28;20455;-84
2023/04/04 05:17:07;;;;;;;8.90;4.37;;;-0.30;99.90;;;;;;5067942;28;20128;-83
2023/04/04 05:19:33;;;;;;;6.90;4.03;;;-0.20;99.90;;;;;;5058730;28;20076;-83
2023/04/04 05:21:59;;;;;;;8.77;4.77;;;-0.20;99.90;;;;;;5055451;28;20037;-83
2023/04/04 05:24:24;;;;;;;7.67;4.67;;;-0.10;99.90;;;;;;5058884;28;20037;-85
2023/04/04 05:26:50;;;;;;;10.37;5.37;;;-0.10;99.90;;;;;;5072093;28;20399;-84
2023/04/04 05:29:16;;;;;;;9.13;5.37;;;-0.10;99.90;;;;;;5074220;28;20119;-84
2023/04/04 05:31:41;;;;;;;12.90;5.77;;;0.00;99.90;;;;;;5072076;28;20045;-84
2023/04/04 05:34:07;;;;;;;14.70;6.63;;;0.00;99.90;;;;;;5052426;28;20045;-84
2023/04/04 05:36:36;;;;;;;15.50;6.60;;;0.10;99.90;;;;;;5037111;28;20420;-85
2023/04/04 05:39:05;;;;;;;12.63;6.27;;;0.90;99.90;;;;;;5063334;28;20029;-84
2023/04/04 05:41:31;;;;;;;14.00;6.77;;;0.20;99.90;;;;;;5060719;28;20538;-83
2023/04/04 05:43:56;;;;;;;10.50;5.77;;;1.10;99.90;;;;;;5060281;28;20045;-85
2023/04/04 05:46:22;;;;;;;11.93;6.23;;;0.30;99.90;;;;;;5065518;28;20037;-85
2023/04/04 05:48:49;;;;;;;11.07;5.53;;;0.30;99.90;;;;;;5072088;28;20048;-85
2023/04/04 05:51:15;;;;;;;15.90;6.00;;;1.20;99.90;;;;;;5070176;28;20369;-84
2023/04/04 05:53:44;;;;;;;11.67;5.70;;;0.40;99.90;;;;;;5069833;28;20082;-85
2023/04/04 05:56:10;;;;;;;14.93;6.90;;;0.50;99.90;;;;;;5067991;28;20043;-85
2023/04/04 05:58:36;;;;;;;14.40;7.93;;;0.50;99.90;;;;;;5055767;28;20051;-84
2023/04/04 06:01:08;;;;;;;26.83;14.57;;;0.60;99.90;;;;;;5061908;28;20036;-85
2023/04/04 06:03:34;;;;;;;34.30;18.43;;;0.60;99.90;;;;;;5057590;28;20626;-85
2023/04/04 06:06:03;;;;;;;25.27;14.60;;;0.60;99.90;;;;;;5065280;28;20047;-85
2023/04/04 06:08:29;;;;;;;18.40;11.77;;;0.60;99.90;;;;;;5039377;28;20512;-85
2023/04/04 06:10:55;;;;;;;12.80;8.07;;;0.60;99.90;;;;;;5040786;28;20115;-85
2023/04/04 06:13:20;;;;;;;8.47;5.50;;;0.70;99.90;;;;;;5054689;28;20171;-85
2023/04/04 06:15:46;;;;;;;10.17;4.93;;;0.70;99.90;;;;;;5041375;28;20057;-84
2023/04/04 06:18:12;;;;;;;8.17;4.53;;;0.80;99.90;;;;;;5061429;28;20044;-85
2023/04/04 06:20:37;;;;;;;5.97;4.23;;;0.90;99.90;;;;;;5058652;28;20423;-84
2023/04/04 06:23:06;;;;;;;8.30;4.53;;;1.00;99.90;;;;;;5071527;28;20518;-85
2023/04/04 06:25:31;;;;;;;7.77;4.37;;;1.20;99.90;;;;;;5053663;28;20052;-84
2023/04/04 06:27:58;;;;;;;8.43;4.03;;;1.20;99.90;;;;;;5059103;28;20037;-83
2023/04/04 06:30:24;;;;;;;5.60;3.80;;;1.40;99.90;;;;;;5068033;28;20040;-83
2023/04/04 06:32:49;;;;;;;7.37;3.93;;;2.20;99.90;;;;;;5063530;28;20075;-83
2023/04/04 06:35:15;;;;;;;8.73;3.50;;;1.60;99.90;;;;;;5063161;28;20068;-83
2023/04/04 06:37:41;;;;;;;8.93;4.07;;;1.80;99.90;;;;;;5049553;28;20045;-84
2023/04/04 06:40:08;;;;;;;6.87;3.23;;;2.70;99.90;;;;;;5063727;28;20512;-84
2023/04/04 06:42:34;;;;;;;5.53;3.70;;;2.00;99.90;;;;;;5053567;28;20104;-84
2023/04/04 06:44:59;;;;;;;6.00;3.40;;;2.80;99.90;;;;;;5055400;28;20135;-84
2023/04/04 06:47:25;;;;;;;5.07;3.23;;;2.70;99.90;;;;;;5053364;28;20048;-85
2023/04/04 06:49:51;;;;;;;8.57;3.50;;;2.20;99.90;;;;;;5067417;28;20057;-85
2023/04/04 06:52:17;;;;;;;5.37;3.47;;;2.50;99.90;;;;;;5053868;28;20074;-85
2023/04/04 06:54:43;;;;;;;4.30;3.00;;;2.40;99.90;;;;;;5059112;28;20060;-84
2023/04/04 06:57:09;;;;;;;6.33;3.60;;;2.50;99.90;;;;;;5059101;28;20049;-84
2023/04/04 06:59:34;;;;;;;5.57;3.03;;;2.70;99.90;;;;;;5062888;28;20044;-85
2023/04/04 07:02:00;;;;;;;6.22;3.10;;;2.90;99.90;;;;;;5056489;28;20063;-86
2023/04/04 07:04:26;;;;;;;5.40;3.17;;;3.10;99.90;;;;;;5060694;28;20036;-85
2023/04/04 07:06:51;;;;;;;5.90;3.20;;;3.20;99.90;;;;;;5051454;28;20048;-86
2023/04/04 07:09:17;;;;;;;6.03;2.60;;;3.40;99.90;;;;;;5059288;28;20087;-85
2023/04/04 07:11:42;;;;;;;9.23;3.10;;;4.10;99.90;;;;;;5063697;28;20052;-85
2023/04/04 07:14:08;;;;;;;5.50;2.80;;;3.70;99.90;;;;;;5045784;28;20043;-84
2023/04/04 07:16:35;;;;;;;6.78;2.83;;;3.90;99.90;;;;;;5063171;28;20102;-85
2023/04/04 07:19:01;;;;;;;5.30;2.50;;;4.00;99.90;;;;;;5043286;28;20440;-85
2023/04/04 07:21:27;;;;;;;5.80;2.88;;;4.20;99.90;;;;;;5046502;28;20098;-85
2023/04/04 07:23:53;;;;;;;6.88;2.63;;;4.20;99.90;;;;;;5053176;28;20415;-85
2023/04/04 07:26:18;;;;;;;5.43;2.67;;;4.30;99.90;;;;;;5060294;28;20048;-86
2023/04/04 07:28:44;;;;;;;4.25;2.28;;;4.40;99.90;;;;;;5056106;28;20048;-85
2023/04/04 07:31:10;;;;;;;5.25;2.60;;;4.50;99.90;;;;;;5060609;28;20219;-85
2023/04/04 07:33:35;;;;;;;6.63;2.58;;;4.60;99.90;;;;;;5065289;28;20044;-84
2023/04/04 07:36:02;;;;;;;3.78;1.95;;;4.70;99.90;;;;;;5048600;28;20119;-84
2023/04/04 07:38:27;;;;;;;5.40;2.20;;;4.80;99.90;;;;;;5059118;28;20313;-84
2023/04/04 07:40:54;;;;;;;5.03;2.42;;;5.00;99.90;;;;;;5048495;28;20037;-80
2023/04/04 07:43:20;;;;;;;3.90;2.25;;;5.10;99.90;;;;;;5047155;28;20108;-80
2023/04/04 07:45:45;;;;;;;5.03;2.40;;;5.30;99.90;;;;;;5061557;28;20083;-81
2023/04/04 07:48:11;;;;;;;3.97;2.28;;;5.30;99.90;;;;;;5056531;28;20041;-81
2023/04/04 07:50:37;;;;;;;4.55;2.20;;;5.40;99.90;;;;;;5060079;28;20048;-81
2023/04/04 07:53:02;;;;;;;4.38;2.20;;;5.40;99.90;;;;;;5042335;28;20474;-83
2023/04/04 07:55:28;;;;;;;4.13;2.17;;;5.50;99.90;;;;;;5054571;28;20515;-81
2023/04/04 07:57:53;;;;;;;4.57;1.90;;;5.60;99.90;;;;;;5042340;28;20037;-81
2023/04/04 08:00:20;;;;;;;6.07;2.10;;;5.70;99.90;;;;;;5061798;28;20079;-82
2023/04/04 08:02:51;;;;;;;6.07;2.13;;;5.80;99.90;;;;;;5061278;28;20090;-82
2023/04/04 08:05:17;;;;;;;3.28;1.90;;;5.90;99.90;;;;;;5062463;28;20029;-82
2023/04/04 08:07:43;;;;;;;4.07;2.05;;;6.00;99.90;;;;;;5054389;28;20063;-82
2023/04/04 08:10:09;;;;;;;6.63;2.40;;;6.10;99.90;;;;;;5063610;28;20048;-83
2023/04/04 08:12:34;;;;;;;3.63;1.90;;;6.20;99.90;;;;;;5064253;28;20037;-81
2023/04/04 08:15:00;;;;;;;4.82;2.65;;;6.30;99.90;;;;;;5058191;28;20110;-82
2023/04/04 08:17:27;;;;;;;3.75;2.03;;;6.50;99.90;;;;;;5055149;28;20044;-82
2023/04/04 08:19:52;;;;;;;3.40;1.95;;;6.60;99.90;;;;;;5059442;28;20230;-81
2023/04/04 08:22:18;;;;;;;6.00;2.05;;;6.70;99.90;;;;;;5062613;28;20041;-82
2023/04/04 08:24:45;;;;;;;8.88;2.50;;;6.80;99.90;;;;;;5061793;28;20130;-81
2023/04/04 08:27:10;;;;;;;5.50;2.00;;;6.90;99.90;;;;;;5065755;28;20412;-81
2023/04/04 08:29:36;;;;;;;6.57;2.08;;;7.00;99.90;;;;;;5054125;28;20036;-81
2023/04/04 08:32:02;;;;;;;7.80;2.08;;;7.10;99.90;;;;;;5055740;28;20056;-81
2023/04/04 08:34:28;;;;;;;5.47;2.00;;;7.30;99.90;;;;;;5057201;28;20124;-82
2023/04/04 08:36:54;;;;;;;4.55;1.80;;;7.40;99.90;;;;;;5056338;28;20037;-81
2023/04/04 08:39:19;;;;;;;3.70;1.90;;;7.50;99.90;;;;;;5055937;28;20032;-82
2023/04/04 08:41:45;;;;;;;3.08;1.70;;;7.60;99.90;;;;;;5061489;28;20040;-81
2023/04/04 08:44:21;;;;;;;5.60;1.85;;;7.70;99.90;;;;;;5068784;28;20116;-81
2023/04/04 08:46:48;;;;;;;5.38;1.80;;;7.90;99.90;;;;;;5055269;28;20101;-82
2023/04/04 08:49:16;;;;;;;4.07;1.65;;;7.80;99.90;;;;;;5052628;28;20041;-82
2023/04/04 08:51:44;;;;;;;3.53;1.80;;;7.90;99.90;;;;;;5038631;28;20045;-81
2023/04/04 08:54:12;;;;;;;4.63;1.85;;;8.00;99.90;;;;;;5054932;28;20083;-81
2023/04/04 08:56:38;;;;;;;4.57;2.00;;;8.10;99.90;;;;;;5034657;28;20068;-81
2023/04/04 08:59:03;;;;;;;4.10;1.80;;;8.10;99.90;;;;;;5060884;28;20033;-81
2023/04/04 09:01:30;;;;;;;3.03;1.60;;;8.20;99.90;;;;;;5060831;28;20548;-82
2023/04/04 09:03:56;;;;;;;2.70;1.77;;;8.30;99.90;;;;;;5053103;28;20611;-82
2023/04/04 09:06:22;;;;;;;4.53;1.52;;;8.30;99.90;;;;;;5064653;28;20503;-81
2023/04/04 09:08:50;;;;;;;3.78;2.03;;;8.30;99.90;;;;;;5055698;28;20040;-82
2023/04/04 09:11:18;;;;;;;3.58;1.63;;;8.40;99.90;;;;;;5067418;28;20041;-81
2023/04/04 09:13:45;;;;;;;4.45;1.67;;;8.50;99.90;;;;;;5068648;28;20124;-81
2023/04/04 09:16:10;;;;;;;3.80;1.50;;;8.50;99.90;;;;;;5056267;28;20045;-81
2023/04/04 09:18:36;;;;;;;3.95;1.73;;;8.60;99.90;;;;;;5046642;28;20037;-81
2023/04/04 09:21:08;;;;;;;5.15;1.98;;;8.70;99.90;;;;;;5072612;28;20062;-82
2023/04/04 09:23:34;;;;;;;4.95;1.80;;;8.70;99.90;;;;;;5064239;28;20051;-82
2023/04/04 09:25:59;;;;;;;2.38;1.30;;;8.80;99.90;;;;;;5050867;28;20116;-81
2023/04/04 09:28:26;;;;;;;4.03;1.40;;;8.80;99.90;;;;;;5070017;28;20583;-81
2023/04/04 09:30:52;;;;;;;3.95;1.60;;;8.80;99.90;;;;;;5050530;28;20119;-82
2023/04/04 09:33:20;;;;;;;6.32;1.67;;;8.90;99.90;;;;;;5046406;28;20132;-81
2023/04/04 09:36:01;;;;;;;4.07;1.92;;;9.00;99.90;;;;;;5075727;28;20059;-81
2023/04/04 09:38:29;;;;;;;2.83;1.40;;;9.00;99.90;;;;;;5067470;28;20400;-81
2023/04/04 09:40:55;;;;;;;2.50;1.55;;;9.00;99.90;;;;;;5068176;28;20620;-81
2023/04/04 09:43:23;;;;;;;4.68;1.73;;;9.00;99.90;;;;;;5052440;28;20064;-82
2023/04/04 09:45:49;;;;;;;3.30;1.52;;;9.10;99.90;;;;;;5071814;28;20062;-82
2023/04/04 09:48:31;;;;;;;2.67;1.42;;;9.20;99.90;;;;;;5053934;28;20040;-82
2023/04/04 09:50:57;;;;;;;5.78;1.50;;;9.20;99.90;;;;;;5068687;28;20037;-81
2023/04/04 09:53:23;;;;;;;2.70;1.65;;;9.30;99.90;;;;;;5072318;28;20048;-82
2023/04/04 09:55:51;;;;;;;4.65;1.73;;;9.40;99.90;;;;;;5071136;28;20100;-82
2023/04/04 09:58:22;;;;;;;7.10;1.80;;;9.20;99.90;;;;;;5067831;28;20048;-82
2023/04/04 10:00:50;;;;;;;5.20;2.30;;;9.30;99.90;;;;;;5066588;28;20036;-82
2023/04/04 10:03:17;;;;;;;7.60;2.28;;;9.40;99.90;;;;;;5058179;28;20672;-82
2023/04/04 10:05:47;;;;;;;5.07;2.35;;;9.40;99.90;;;;;;5059567;28;20067;-82
2023/04/04 10:08:20;;;;;;;3.35;1.80;;;9.30;99.90;;;;;;5048688;28;20097;-82
2023/04/04 10:10:57;;;;;;;3.63;1.67;;;9.30;99.90;;;;;;5050167;28;20527;-82
2023/04/04 10:13:28;;;;;;;4.60;2.00;;;9.40;99.90;;;;;;5071375;28;20563;-83
2023/04/04 10:15:56;;;;;;;3.53;1.60;;;9.60;99.90;;;;;;5045923;28;20452;-81
2023/04/04 10:18:33;;;;;;;3.53;1.70;;;9.70;99.90;;;;;;5065431;28;20041;-82
2023/04/04 10:21:01;;;;;;;3.38;1.90;;;9.80;99.90;;;;;;5064378;28;20079;-82
2023/04/04 10:23:27;;;;;;;4.72;1.70;;;9.80;99.90;;;;;;5066923;28;20037;-82
2023/04/04 10:25:53;;;;;;;5.57;1.98;;;9.90;99.90;;;;;;5048144;28;20099;-81
2023/04/04 10:28:20;;;;;;;3.63;1.60;;;10.00;99.90;;;;;;5064665;28;20177;-82
2023/04/04 10:31:23;;;;;;;6.78;2.10;;;10.00;99.90;;;;;;5053541;28;20187;-83
2023/04/04 10:34:10;;;;;;;5.90;1.98;;;10.20;99.90;;;;;;5021339;28;20037;-82
2023/04/04 10:36:50;;;;;;;6.50;2.40;;;10.40;99.90;;;;;;5067998;28;20081;-82
2023/04/04 10:39:28;;;;;;;2.72;1.58;;;10.50;99.90;;;;;;5070250;28;20505;-82
2023/04/04 10:41:55;;;;;;;3.22;2.00;;;10.60;99.90;;;;;;5065514;28;20508;-83
2023/04/04 10:44:32;;;;;;;5.95;2.22;;;10.90;99.90;;;;;;5050071;28;20116;-82
2023/04/04 10:47:14;;;;;;;4.63;2.00;;;10.80;98.40;;;;;;5069679;28;20047;-82
2023/04/04 10:49:45;;;;;;;3.95;2.08;;;10.80;99.80;;;;;;5066744;28;20045;-86
2023/04/04 10:52:12;;;;;;;5.13;2.20;;;10.80;98.90;;;;;;5055429;28;20040;-85
2023/04/04 10:54:42;;;;;;;8.18;2.35;;;10.80;99.30;;;;;;5042925;28;20037;-86
2023/04/04 10:57:09;;;;;;;3.92;1.95;;;10.90;99.50;;;;;;5059129;28;20056;-86
2023/04/04 10:59:56;;;;;;;4.25;2.00;;;11.00;99.10;;;;;;5055690;28;20403;-86
2023/04/04 11:02:57;;;;;;;3.45;2.00;;;11.20;98.70;;;;;;5038907;28;20036;-85
2023/04/04 11:05:30;;;;;;;4.43;2.25;;;11.40;99.70;;;;;;5055622;28;20041;-86
2023/04/04 11:08:05;;;;;;;7.35;2.20;;;11.40;99.20;;;;;;5052971;28;20040;-85
2023/04/04 11:10:34;;;;;;;4.50;2.30;;;11.40;98.80;;;;;;5038507;28;20095;-86
2023/04/04 11:13:11;;;;;;;6.05;2.42;;;11.40;99.10;;;;;;5061208;28;20131;-86
2023/04/04 11:15:52;;;;;;;5.82;2.30;;;11.10;94.90;;;;;;5041552;28;20116;-86
2023/04/04 11:18:22;;;;;;;4.32;2.22;;;11.30;95.90;;;;;;5059433;28;20048;-85
2023/04/04 11:20:48;;;;;;;4.03;2.20;;;11.90;97.90;;;;;;5063948;28;20049;-85
2023/04/04 11:23:19;;;;;;;7.50;2.50;;;11.30;96.80;;;;;;5067834;28;20091;-84
2023/04/04 11:25:55;;;;;;;3.85;2.35;;;11.70;97.70;;;;;;5060375;28;20087;-86
2023/04/04 11:28:33;;;;;;;8.93;2.50;;;11.80;96.30;;;;;;5057479;28;20044;-86
2023/04/04 11:31:17;;;;;;;6.13;2.30;;;11.90;95.00;;;;;;5064128;28;20040;-87
2023/04/04 11:34:03;;;;;;;5.50;2.22;;;12.00;96.70;;;;;;5059155;28;20053;-86
2023/04/04 11:36:35;;;;;;;4.45;2.65;;;12.00;95.50;;;;;;5034547;28;20472;-86
2023/04/04 11:39:13;;;;;;;5.45;2.20;;;12.20;96.80;;;;;;5039448;28;20037;-87
2023/04/04 11:41:52;;;;;;;3.58;1.95;;;12.40;96.30;;;;;;5045333;28;20051;-86
2023/04/04 11:44:19;;;;;;;4.38;2.30;;;12.50;96.50;;;;;;5043080;28;20395;-85
2023/04/04 11:46:46;;;;;;;4.68;2.05;;;12.60;96.40;;;;;;5036592;28;21667;-86
2023/04/04 11:49:13;;;;;;;3.85;1.85;;;12.70;96.10;;;;;;5051954;28;20052;-86
2023/04/04 11:51:41;;;;;;;5.05;2.30;;;12.60;95.20;;;;;;5040879;28;20455;-86
2023/04/04 11:54:16;;;;;;;4.97;2.20;;;12.70;93.90;;;;;;5042080;28;20056;-86
2023/04/04 11:56:44;;;;;;;5.40;2.40;;;12.90;95.10;;;;;;5058728;28;20036;-87
2023/04/04 11:59:11;;;;;;;3.53;2.15;;;12.80;95.20;;;;;;5070847;28;20068;-85
2023/04/04 12:01:38;;;;;;;4.25;2.20;;;12.60;93.50;;;;;;5057095;28;20488;-86
2023/04/04 12:04:04;;;;;;;4.15;2.08;;;12.40;92.50;;;;;;5053341;28;20047;-86
2023/04/04 12:06:34;;;;;;;5.68;2.60;;;12.50;92.80;;;;;;5053893;28;20413;-86
2023/04/04 12:09:02;;;;;;;4.25;2.10;;;12.70;93.20;;;;;;5061110;28;20472;-85
2023/04/04 12:11:29;;;;;;;4.13;2.03;;;12.80;93.20;;;;;;5053603;28;20102;-86
2023/04/04 12:13:56;;;;;;;5.38;2.40;;;13.10;93.30;;;;;;5043812;28;20047;-87
2023/04/04 12:16:22;;;;;;;5.32;2.08;;;13.20;92.90;;;;;;5053356;28;20533;-87
2023/04/04 12:18:51;;;;;;;4.13;2.30;;;13.40;93.00;;;;;;5057425;28;20044;-86
2023/04/04 12:21:17;;;;;;;5.95;2.13;;;13.60;92.90;;;;;;5054164;28;20516;-87
2023/04/04 12:23:42;;;;;;;5.90;2.42;;;13.70;92.70;;;;;;5061615;28;20073;-86
2023/04/04 12:26:10;;;;;;;4.38;2.05;;;13.70;91.40;;;;;;5035342;28;20076;-86
2023/04/04 12:28:38;;;;;;;3.00;1.70;;;14.30;91.20;;;;;;5057788;28;20040;-87
2023/04/04 12:31:05;;;;;;;5.15;2.00;;;13.90;90.30;;;;;;5039640;28;20081;-88
2023/04/04 12:33:35;;;;;;;4.95;1.88;;;13.80;89.40;;;;;;5067142;28;20524;-87
2023/04/04 12:36:05;;;;;;;4.43;2.13;;;13.50;90.30;;;;;;5047998;28;20090;-87
2023/04/04 12:38:31;;;;;;;4.25;2.05;;;13.40;89.20;;;;;;5064418;28;20044;-87
2023/04/04 12:40:57;;;;;;;3.92;1.90;;;13.50;90.50;;;;;;5052478;28;20392;-87
2023/04/04 12:43:28;;;;;;;3.95;2.00;;;14.20;90.80;;;;;;5054098;28;20586;-86
2023/04/04 12:45:56;;;;;;;2.95;1.95;;;14.20;89.80;;;;;;5054319;28;20037;-87
2023/04/04 12:48:27;;;;;;;4.78;2.00;;;13.40;79.30;;;;;;5033679;28;20041;-86
2023/04/04 12:50:55;;;;;;;4.38;1.98;;;13.60;89.00;;;;;;5037218;28;20430;-86
2023/04/04 12:53:28;;;;;;;3.08;1.95;;;13.70;88.40;;;;;;5054122;28;20080;-86
2023/04/04 12:55:58;;;;;;;3.55;1.83;;;13.90;86.70;;;;;;5053499;28;20091;-86